Observation data for Tulia on 12/09/2018      Previous  Date  Next       Current Mesonet Observations  Soil Data  Daily Summary Page  Observations in Plain Language
KTIS 090600Z 26006KT M03/M04 A303 RMK A01 T10281040  RH  092%=      5-min Rain = 0
KTIS 090605Z 26006KT M03/M04 A303 RMK A01 T10281042  RH  091%=      5-min Rain = 0
KTIS 090610Z 27005KT M03/M04 A303 RMK A01 T10301043  RH  091%=      5-min Rain = 0
KTIS 090615Z 27004KT M03/M05 A3029 RMK A01 T10321046  RH  091%=      5-min Rain = 0
KTIS 090620Z 26005KT M04/M05 A303 RMK A01 T10351047  RH  091%=      5-min Rain = 0
KTIS 090625Z 27005KT M03/M04 A303 RMK A01 T10311042  RH  092%=      5-min Rain = 0
KTIS 090630Z 27005KT M03/M05 A3029 RMK A01 T10341047  RH  091%=      5-min Rain = 0
KTIS 090635Z 28006KT M04/M05 A303 RMK A01 T10391053  RH  091%=      5-min Rain = 0
KTIS 090640Z 27005KT M04/M05 A303 RMK A01 T10371048  RH  092%=      5-min Rain = 0
KTIS 090645Z 27005KT M04/M05 A3029 RMK A01 T10351047  RH  092%=      5-min Rain = 0
KTIS 090650Z 27005KT M04/M05 A3029 RMK A01 T10361048  RH  092%=      5-min Rain = 0
KTIS 090655Z 27005KT M04/M05 A3029 RMK A01 T10371049  RH  092%=      5-min Rain = 0
KTIS 090700Z 28005KT M04/M05 A3029 RMK A01 T10391051  RH  092%=      5-min Rain = 0
KTIS 090705Z 28005KT M04/M05 A3029 RMK A01 T10411053  RH  091%=      5-min Rain = 0
KTIS 090710Z 28005KT M04/M06 A3029 RMK A01 T10441056  RH  091%=      5-min Rain = 0
KTIS 090715Z 29006KT M04/M06 A3029 RMK A01 T10441056  RH  092%=      5-min Rain = 0
KTIS 090720Z 29005KT M05/M06 A3029 RMK A01 T10471059  RH  091%=      5-min Rain = 0
KTIS 090725Z 28006KT M05/M06 A3029 RMK A01 T10491061  RH  092%=      5-min Rain = 0
KTIS 090730Z 28006KT M05/M06 A3029 RMK A01 T10511063  RH  092%=      5-min Rain = 0
KTIS 090735Z 29006KT M05/M06 A3028 RMK A01 T10521064  RH  092%=      5-min Rain = 0
KTIS 090740Z 29006KT M05/M06 A3028 RMK A01 T10511062  RH  092%=      5-min Rain = 0
KTIS 090745Z 29005KT M05/M06 A3028 RMK A01 T10511062  RH  092%=      5-min Rain = 0
KTIS 090750Z 29005KT M05/M06 A3028 RMK A01 T10511061  RH  092%=      5-min Rain = 0
KTIS 090755Z 28005KT M05/M06 A3028 RMK A01 T10511062  RH  092%=      5-min Rain = 0
KTIS 090800Z 28004KT M05/M06 A3028 RMK A01 T10501060  RH  092%=      5-min Rain = 0
KTIS 090805Z 28004KT M05/M06 A3028 RMK A01 T10501061  RH  092%=      5-min Rain = 0
KTIS 090810Z 28004KT M05/M06 A3029 RMK A01 T10521063  RH  092%=      5-min Rain = 0
KTIS 090815Z 29005KT M05/M07 A3029 RMK A01 T10531065  RH  091%=      5-min Rain = 0
KTIS 090820Z 29005KT M05/M07 A3029 RMK A01 T10531065  RH  091%=      5-min Rain = 0
KTIS 090825Z 30005KT M05/M07 A3029 RMK A01 T10541067  RH  091%=      5-min Rain = 0
KTIS 090830Z 30005KT M06/M07 A3029 RMK A01 T10551067  RH  091%=      5-min Rain = 0
KTIS 090835Z 30005KT M06/M07 A3029 RMK A01 T10561068  RH  091%=      5-min Rain = 0
KTIS 090840Z 30005KT M06/M07 A3029 RMK A01 T10571069  RH  091%=      5-min Rain = 0
KTIS 090845Z 30005KT M06/M07 A3029 RMK A01 T10571070  RH  091%=      5-min Rain = 0
KTIS 090850Z 30005KT M06/M07 A3029 RMK A01 T10561069  RH  091%=      5-min Rain = 0
KTIS 090855Z 29005KT M06/M07 A3029 RMK A01 T10561069  RH  091%=      5-min Rain = 0
KTIS 090900Z 29004KT M06/M07 A3028 RMK A01 T10561069  RH  091%=      5-min Rain = 0
KTIS 090905Z 29005KT M06/M07 A3028 RMK A01 T10561069  RH  090%=      5-min Rain = 0
KTIS 090910Z 30005KT M06/M07 A3028 RMK A01 T10581072  RH  090%=      5-min Rain = 0
KTIS 090915Z 30006KT M06/M08 A3029 RMK A01 T10601075  RH  090%=      5-min Rain = 0
KTIS 090920Z 30006KT M06/M07 A3029 RMK A01 T10601074  RH  090%=      5-min Rain = 0
KTIS 090925Z 30006KT M06/M07 A3029 RMK A01 T10591074  RH  090%=      5-min Rain = 0
KTIS 090930Z 30006KT M06/M07 A3029 RMK A01 T10591074  RH  090%=      5-min Rain = 0
KTIS 090935Z 29006KT M06/M07 A3029 RMK A01 T10581073  RH  090%=      5-min Rain = 0
KTIS 090940Z 30006KT M06/M07 A3029 RMK A01 T10581073  RH  089%=      5-min Rain = 0
KTIS 090945Z 31006KT M06/M07 A3029 RMK A01 T10581073  RH  089%=      5-min Rain = 0
KTIS 090950Z 30006KT M06/M07 A3029 RMK A01 T10581073  RH  089%=      5-min Rain = 0
KTIS 090955Z 30006KT M06/M07 A3029 RMK A01 T10571073  RH  089%=      5-min Rain = 0
KTIS 091000Z 30005KT M06/M07 A3029 RMK A01 T10571073  RH  089%=      5-min Rain = 0
KTIS 091005Z 31006KT M06/M07 A3029 RMK A01 T10581074  RH  088%=      5-min Rain = 0
KTIS 091010Z 32006KT M06/M08 A3029 RMK A01 T10601076  RH  089%=      5-min Rain = 0
KTIS 091015Z 31005KT M06/M08 A3029 RMK A01 T10621078  RH  089%=      5-min Rain = 0
KTIS 091020Z 31005KT M06/M08 A3029 RMK A01 T10641079  RH  089%=      5-min Rain = 0
KTIS 091025Z 31006KT M07/M08 A3029 RMK A01 T10651080  RH  089%=      5-min Rain = 0
KTIS 091030Z 30006KT M07/M08 A3029 RMK A01 T10651080  RH  089%=      5-min Rain = 0
KTIS 091035Z 30005KT M06/M08 A3029 RMK A01 T10641079  RH  089%=      5-min Rain = 0
KTIS 091040Z 29005KT M06/M08 A3029 RMK A01 T10641079  RH  089%=      5-min Rain = 0
KTIS 091045Z 30005KT M06/M08 A3029 RMK A01 T10631079  RH  089%=      5-min Rain = 0
KTIS 091050Z 31005KT M06/M08 A3029 RMK A01 T10631079  RH  089%=      5-min Rain = 0
KTIS 091055Z 31005KT M06/M08 A3029 RMK A01 T10641080  RH  088%=      5-min Rain = 0
KTIS 091100Z 31006KT M07/M08 A3029 RMK A01 T10651081  RH  088%=      5-min Rain = 0
KTIS 091105Z 32005KT M07/M08 A3029 RMK A01 T10661082  RH  088%=      5-min Rain = 0
KTIS 091110Z 32005KT M07/M08 A3029 RMK A01 T10671083  RH  088%=      5-min Rain = 0
KTIS 091115Z 31005KT M07/M08 A3029 RMK A01 T10671082  RH  089%=      5-min Rain = 0
KTIS 091120Z 31004KT M07/M08 A3028 RMK A01 T10671082  RH  088%=      5-min Rain = 0
KTIS 091125Z 31005KT M07/M08 A3029 RMK A01 T10671084  RH  088%=      5-min Rain = 0
KTIS 091130Z 31005KT M07/M08 A3029 RMK A01 T10681084  RH  088%=      5-min Rain = 0
KTIS 091135Z 31005KT M07/M09 A3029 RMK A01 T10691085  RH  088%=      5-min Rain = 0
KTIS 091140Z 30005KT M07/M09 A3029 RMK A01 T10691085  RH  088%=      5-min Rain = 0
KTIS 091145Z 30005KT M07/M09 A3029 RMK A01 T10691085  RH  088%=      5-min Rain = 0
KTIS 091150Z 31005KT M07/M09 A3029 RMK A01 T10701086  RH  088%=      5-min Rain = 0
KTIS 091155Z 31005KT M07/M08 A3029 RMK A01 T10691084  RH  089%=      5-min Rain = 0
KTIS 091200Z 31005KT M07/M08 A3029 RMK A01 T10681084  RH  089%=      5-min Rain = 0
KTIS 091205Z 30005KT M07/M08 A3029 RMK A01 T10681084  RH  088%=      5-min Rain = 0
KTIS 091210Z 30005KT M07/M09 A3029 RMK A01 T10691085  RH  088%=      5-min Rain = 0
KTIS 091215Z 30006KT M07/M09 A303 RMK A01 T10701086  RH  088%=      5-min Rain = 0
KTIS 091220Z 30006KT M07/M09 A303 RMK A01 T10711088  RH  088%=      5-min Rain = 0
KTIS 091225Z 30006KT M07/M09 A303 RMK A01 T10711087  RH  088%=      5-min Rain = 0
KTIS 091230Z 31006KT M07/M09 A303 RMK A01 T10701086  RH  088%=      5-min Rain = 0
KTIS 091235Z 30005KT M07/M09 A303 RMK A01 T10691085  RH  088%=      5-min Rain = 0
KTIS 091240Z 30005KT M07/M09 A303 RMK A01 T10701086  RH  088%=      5-min Rain = 0
KTIS 091245Z 31005KT M07/M09 A3031 RMK A01 T10711088  RH  088%=      5-min Rain = 0
KTIS 091250Z 31006KT M07/M09 A3031 RMK A01 T10721088  RH  088%=      5-min Rain = 0
KTIS 091255Z 31006KT M07/M09 A3031 RMK A01 T10711087  RH  088%=      5-min Rain = 0
KTIS 091300Z 31005KT M07/M09 A3031 RMK A01 T10711087  RH  088%=      5-min Rain = 0
KTIS 091305Z 32007KT M07/M09 A3031 RMK A01 T10721088  RH  088%=      5-min Rain = 0
KTIS 091310Z 31007KT M07/M09 A3032 RMK A01 T10721088  RH  088%=      5-min Rain = 0
KTIS 091315Z 32005KT M07/M09 A3032 RMK A01 T10721088  RH  088%=      5-min Rain = 0
KTIS 091320Z 31005KT M07/M09 A3032 RMK A01 T10711088  RH  088%=      5-min Rain = 0
KTIS 091325Z 31005KT M07/M09 A3032 RMK A01 T10721089  RH  088%=      5-min Rain = 0
KTIS 091330Z 31005KT M07/M09 A3033 RMK A01 T10731089  RH  088%=      5-min Rain = 0
KTIS 091335Z 32004KT M08/M09 A3033 RMK A01 T10751092  RH  087%=      5-min Rain = 0
KTIS 091340Z 32005KT M08/M09 A3033 RMK A01 T10761093  RH  087%=      5-min Rain = 0
KTIS 091345Z 32005KT M08/M09 A3033 RMK A01 T10761092  RH  088%=      5-min Rain = 0
KTIS 091350Z 32005KT M08/M09 A3033 RMK A01 T10751091  RH  088%=      5-min Rain = 0
KTIS 091355Z 31005KT M07/M09 A3033 RMK A01 T10731089  RH  088%=      5-min Rain = 0
KTIS 091400Z 31006KT M07/M09 A3033 RMK A01 T10711088  RH  088%=      5-min Rain = 0
KTIS 091405Z 31006KT M07/M09 A3034 RMK A01 T10691086  RH  087%=      5-min Rain = 0
KTIS 091410Z 31007KT M07/M09 A3034 RMK A01 T10681085  RH  087%=      5-min Rain = 0
KTIS 091415Z 31006KT M07/M08 A3034 RMK A01 T10671084  RH  087%=      5-min Rain = 0
KTIS 091420Z 31006KT M06/M08 A3034 RMK A01 T10641082  RH  087%=      5-min Rain = 0
KTIS 091425Z 31005KT M06/M08 A3034 RMK A01 T10601079  RH  087%=      5-min Rain = 0
KTIS 091430Z 32005KT M06/M08 A3035 RMK A01 T10581076  RH  087%=      5-min Rain = 0
KTIS 091435Z 31006KT M06/M07 A3035 RMK A01 T10551073  RH  087%=      5-min Rain = 0
KTIS 091440Z 31006KT M05/M07 A3035 RMK A01 T10511070  RH  087%=      5-min Rain = 0
KTIS 091445Z 32006KT M05/M07 A3035 RMK A01 T10471066  RH  086%=      5-min Rain = 0
KTIS 091450Z 32006KT M04/M06 A3035 RMK A01 T10421062  RH  086%=      5-min Rain = 0
KTIS 091455Z 32006KT M04/M06 A3035 RMK A01 T10371057  RH  086%=      5-min Rain = 0
KTIS 091500Z 32005KT M03/M05 A3035 RMK A01 T10321054  RH  085%=      5-min Rain = 0
KTIS 091505Z 33005KT M03/M05 A3035 RMK A01 T10271051  RH  084%=      5-min Rain = 0
KTIS 091510Z 32005KT M02/M05 A3036 RMK A01 T10241050  RH  083%=      5-min Rain = 0
KTIS 091515Z 32004KT M02/M05 A3036 RMK A01 T10221047  RH  083%=      5-min Rain = 0
KTIS 091520Z 32005KT M02/M05 A3036 RMK A01 T10211045  RH  083%=      5-min Rain = 0
KTIS 091525Z 32005KT M02/M04 A3036 RMK A01 T10181044  RH  083%=      5-min Rain = 0
KTIS 091530Z 31004KT M02/M04 A3036 RMK A01 T10151041  RH  083%=      5-min Rain = 0
KTIS 091535Z 32004KT M01/M04 A3036 RMK A01 T10141042  RH  082%=      5-min Rain = 0
KTIS 091540Z 32004KT M01/M04 A3037 RMK A01 T10111039  RH  082%=      5-min Rain = 0
KTIS 091545Z 32004KT M01/M04 A3037 RMK A01 T10091036  RH  082%=      5-min Rain = 0
KTIS 091550Z 32005KT M01/M04 A3037 RMK A01 T10051035  RH  080%=      5-min Rain = 0
KTIS 091555Z 32005KT M00/M03 A3037 RMK A01 T10031034  RH  080%=      5-min Rain = 0
KTIS 091600Z 32005KT 00/03 A3037 RMK A01 T00000-32  RH  079%=      5-min Rain = 0
KTIS 091605Z 32005KT 00/M03 A3037 RMK A01 T00031030  RH  079%=      5-min Rain = 0
KTIS 091610Z 32005KT 01/M03 A3037 RMK A01 T00061028  RH  078%=      5-min Rain = 0
KTIS 091615Z 32005KT 01/M03 A3038 RMK A01 T00091028  RH  077%=      5-min Rain = 0
KTIS 091620Z 32005KT 01/M03 A3038 RMK A01 T00121026  RH  076%=      5-min Rain = 0
KTIS 091625Z 33004KT 02/M03 A3037 RMK A01 T00161025  RH  075%=      5-min Rain = 0
KTIS 091630Z 33005KT 02/M02 A3037 RMK A01 T00191023  RH  074%=      5-min Rain = 0
KTIS 091635Z 35004KT 02/M02 A3037 RMK A01 T00221024  RH  072%=      5-min Rain = 0
KTIS 091640Z 35004KT 03/M02 A3037 RMK A01 T00261021  RH  072%=      5-min Rain = 0
KTIS 091645Z 35004KT 03/M02 A3037 RMK A01 T00291021  RH  070%=      5-min Rain = 0
KTIS 091650Z 36005KT 03/M03 A3037 RMK A01 T00321028  RH  065%=      5-min Rain = 0
KTIS 091655Z 34006KT 04/M03 A3037 RMK A01 T00351031  RH  063%=      5-min Rain = 0
KTIS 091700Z 36006KT 04/M03 A3037 RMK A01 T00361032  RH  062%=      5-min Rain = 0
KTIS 091705Z 35006KT 04/M03 A3037 RMK A01 T00361032  RH  062%=      5-min Rain = 0
KTIS 091710Z 00006KT 04/M03 A3037 RMK A01 T00381029  RH  062%=      5-min Rain = 0
KTIS 091715Z 00006KT 04/M03 A3037 RMK A01 T00411028  RH  061%=      5-min Rain = 0
KTIS 091720Z 01006KT 04/M03 A3036 RMK A01 T00401030  RH  060%=      5-min Rain = 0
KTIS 091725Z 02007KT 04/M03 A3036 RMK A01 T00421029  RH  060%=      5-min Rain = 0
KTIS 091730Z 02006KT 04/M03 A3036 RMK A01 T00421032  RH  059%=      5-min Rain = 0
KTIS 091735Z 01007KT 05/M03 A3036 RMK A01 T00451029  RH  059%=      5-min Rain = 0
KTIS 091740Z 02006KT 05/M03 A3037 RMK A01 T00471031  RH  057%=      5-min Rain = 0
KTIS 091745Z 02006KT 05/M03 A3037 RMK A01 T00491033  RH  056%=      5-min Rain = 0
KTIS 091750Z 03005KT 05/M03 A3036 RMK A01 T00511029  RH  056%=      5-min Rain = 0
KTIS 091755Z 03005KT 05/M03 A3036 RMK A01 T00501032  RH  056%=      5-min Rain = 0
KTIS 091800Z 04004KT 05/M03 A3036 RMK A01 T00501032  RH  056%=      5-min Rain = 0
KTIS 091805Z 36004KT 05/M03 A3036 RMK A01 T00501032  RH  056%=      5-min Rain = 0
KTIS 091810Z 00006KT 05/M03 A3036 RMK A01 T00521031  RH  056%=      5-min Rain = 0
KTIS 091815Z 04005KT 05/M04 A3036 RMK A01 T00521036  RH  053%=      5-min Rain = 0
KTIS 091820Z 03003KT 06/M03 A3036 RMK A01 T00551032  RH  054%=      5-min Rain = 0
KTIS 091825Z 05003KT 06/M04 A3035 RMK A01 T00551035  RH  053%=      5-min Rain = 0
KTIS 091830Z 02003KT 06/M03 A3035 RMK A01 T00551032  RH  054%=      5-min Rain = 0
KTIS 091835Z 01005KT 06/M03 A3034 RMK A01 T00571033  RH  053%=      5-min Rain = 0
KTIS 091840Z 35004KT 06/M04 A3034 RMK A01 T00561035  RH  052%=      5-min Rain = 0
KTIS 091845Z 03003KT 06/M03 A3034 RMK A01 T00581033  RH  052%=      5-min Rain = 0
KTIS 091850Z 03002KT 06/M03 A3034 RMK A01 T00591032  RH  052%=      5-min Rain = 0
KTIS 091855Z 02004KT 06/M03 A3033 RMK A01 T00621030  RH  052%=      5-min Rain = 0
KTIS 091900Z 02002KT 06/M04 A3033 RMK A01 T00601037  RH  050%=      5-min Rain = 0
KTIS 091905Z 34003KT 06/M04 A3033 RMK A01 T00621037  RH  049%=      5-min Rain = 0
KTIS 091910Z 02004KT 06/M04 A3033 RMK A01 T00631038  RH  049%=      5-min Rain = 0
KTIS 091915Z 03005KT 06/M04 A3032 RMK A01 T00641036  RH  049%=      5-min Rain = 0
KTIS 091920Z 02005KT 07/M04 A3033 RMK A01 T00661037  RH  048%=      5-min Rain = 0
KTIS 091925Z 34003KT 07/M04 A3033 RMK A01 T00651042  RH  047%=      5-min Rain = 0
KTIS 091930Z 04006KT 07/M04 A3032 RMK A01 T00671036  RH  048%=      5-min Rain = 0
KTIS 091935Z 03005KT 07/M04 A3032 RMK A01 T00661039  RH  047%=      5-min Rain = 0
KTIS 091940Z 00004KT 07/M04 A3032 RMK A01 T00681038  RH  047%=      5-min Rain = 0
KTIS 091945Z 36004G9KT 07/M04 A3032 RMK A01 T00701039  RH  046%=      5-min Rain = 0
KTIS 091950Z 31002KT 07/M04 A3032 RMK A01 T00691043  RH  045%=      5-min Rain = 0
KTIS 091955Z 36003KT 07/M04 A3032 RMK A01 T00701043  RH  044%=      5-min Rain = 0
KTIS 092000Z 35005KT 07/M04 A3032 RMK A01 T00701042  RH  045%=      5-min Rain = 0
KTIS 092005Z 03003G9KT 07/M05 A3032 RMK A01 T00701045  RH  044%=      5-min Rain = 0
KTIS 092010Z 01006KT 07/M04 A3031 RMK A01 T00741041  RH  044%=      5-min Rain = 0
KTIS 092015Z 35003KT 07/M04 A3031 RMK A01 T00731044  RH  043%=      5-min Rain = 0
KTIS 092020Z 02003KT 07/M05 A3031 RMK A01 T00731046  RH  043%=      5-min Rain = 0
KTIS 092025Z 03004KT 07/M04 A3031 RMK A01 T00741043  RH  043%=      5-min Rain = 0
KTIS 092030Z 05004KT 08/M04 A3031 RMK A01 T00751043  RH  043%=      5-min Rain = 0
KTIS 092035Z 07002KT 08/M05 A3031 RMK A01 T00751045  RH  042%=      5-min Rain = 0
KTIS 092040Z 00003KT 08/M04 A3031 RMK A01 T00781044  RH  042%=      5-min Rain = 0
KTIS 092045Z 00003KT 08/M05 A3031 RMK A01 T00771048  RH  041%=      5-min Rain = 0
KTIS 092050Z 03004KT 08/M05 A3031 RMK A01 T00761047  RH  041%=      5-min Rain = 0
KTIS 092055Z 01003KT 08/M04 A3031 RMK A01 T00801044  RH  041%=      5-min Rain = 0
KTIS 092100Z 05005KT 08/M04 A3031 RMK A01 T00811042  RH  042%=      5-min Rain = 0
KTIS 092105Z 00004KT 08/M04 A3031 RMK A01 T00801042  RH  042%=      5-min Rain = 0
KTIS 092110Z 36004KT 08/M05 A3031 RMK A01 T00801046  RH  041%=      5-min Rain = 0
KTIS 092115Z 34004KT 08/M05 A3031 RMK A01 T00811046  RH  041%=      5-min Rain = 0
KTIS 092120Z 03004KT 08/M04 A3031 RMK A01 T00831043  RH  041%=      5-min Rain = 0
KTIS 092125Z 01004KT 08/M05 A3031 RMK A01 T00811046  RH  041%=      5-min Rain = 0
KTIS 092130Z 02003KT 08/M04 A3031 RMK A01 T00831041  RH  042%=      5-min Rain = 0
KTIS 092135Z 01000KT 09/M05 A3031 RMK A01 T00851045  RH  040%=      5-min Rain = 0
KTIS 092140Z 04003KT 09/M04 A3031 RMK A01 T00871044  RH  040%=      5-min Rain = 0
KTIS 092145Z 04005KT 08/M04 A3031 RMK A01 T00831043  RH  041%=      5-min Rain = 0
KTIS 092150Z 02003KT 08/M05 A3031 RMK A01 T00821046  RH  040%=      5-min Rain = 0
KTIS 092155Z 03003KT 08/M04 A3031 RMK A01 T00821043  RH  041%=      5-min Rain = 0
KTIS 092200Z 07003KT 08/M04 A3031 RMK A01 T00831042  RH  041%=      5-min Rain = 0
KTIS 092205Z 08003KT 08/M04 A3031 RMK A01 T00831041  RH  042%=      5-min Rain = 0
KTIS 092210Z 10002KT 08/M04 A3031 RMK A01 T00841043  RH  041%=      5-min Rain = 0
KTIS 092215Z 04002KT 09/M04 A3031 RMK A01 T00851043  RH  040%=      5-min Rain = 0
KTIS 092220Z 01003KT 08/M04 A3031 RMK A01 T00831042  RH  041%=      5-min Rain = 0
KTIS 092225Z 05003KT 08/M04 A3031 RMK A01 T00831037  RH  042%=      5-min Rain = 0
KTIS 092230Z 06003KT 08/M04 A3031 RMK A01 T00831035  RH  043%=      5-min Rain = 0
KTIS 092235Z 04003KT 08/M04 A3031 RMK A01 T00821040  RH  042%=      5-min Rain = 0
KTIS 092240Z 06003KT 08/M04 A3031 RMK A01 T00821037  RH  043%=      5-min Rain = 0
KTIS 092245Z 07003KT 08/M03 A3031 RMK A01 T00811033  RH  045%=      5-min Rain = 0
KTIS 092250Z 09003KT 08/M03 A3031 RMK A01 T00791033  RH  045%=      5-min Rain = 0
KTIS 092255Z 09002KT 08/M03 A3031 RMK A01 T00781026  RH  048%=      5-min Rain = 0
KTIS 092300Z 09002KT 08/M03 A3031 RMK A01 T00801026  RH  048%=      5-min Rain = 0
KTIS 092305Z 09002KT 08/M03 A3031 RMK A01 T00791025  RH  048%=      5-min Rain = 0
KTIS 092310Z 06003KT 07/M03 A3031 RMK A01 T00741025  RH  050%=      5-min Rain = 0
KTIS 092315Z 06002KT 07/M03 A3031 RMK A01 T00721028  RH  050%=      5-min Rain = 0
KTIS 092320Z 06001KT 07/M03 A3031 RMK A01 T00711025  RH  051%=      5-min Rain = 0
KTIS 092325Z 06002KT 07/M02 A3031 RMK A01 T00701022  RH  052%=      5-min Rain = 0
KTIS 092330Z 13005KT 06/M02 A3032 RMK A01 T00601020  RH  057%=      5-min Rain = 0
KTIS 092335Z 16005KT 04/M01 A3032 RMK A01 T00431010  RH  069%=      5-min Rain = 0
KTIS 092340Z 16006KT 03/M01 A3032 RMK A01 T00341011  RH  074%=      5-min Rain = 0
KTIS 092345Z 16006KT 03/M01 A3032 RMK A01 T00261011  RH  077%=      5-min Rain = 0
KTIS 092350Z 17006KT 02/M01 A3032 RMK A01 T00241010  RH  079%=      5-min Rain = 0
KTIS 092355Z 19006KT 02/M01 A3032 RMK A01 T00241010  RH  079%=      5-min Rain = 0
KTIS 100000Z 19007KT 02/M01 A3032 RMK A01 T00211010  RH  080%=      5-min Rain = 0
KTIS 100005Z 20007KT 02/M01 A3032 RMK A01 T00201011  RH  080%=      5-min Rain = 0
KTIS 100010Z 20006KT 02/M01 A3033 RMK A01 T00171013  RH  081%=      5-min Rain = 0
KTIS 100015Z 21006KT 01/M01 A3033 RMK A01 T00141014  RH  082%=      5-min Rain = 0
KTIS 100020Z 22006KT 01/M01 A3033 RMK A01 T00131013  RH  084%=      5-min Rain = 0
KTIS 100025Z 23006KT 01/M01 A3034 RMK A01 T00121013  RH  084%=      5-min Rain = 0
KTIS 100030Z 24006KT 01/M02 A3034 RMK A01 T00111015  RH  084%=      5-min Rain = 0
KTIS 100035Z 24006KT 01/M02 A3034 RMK A01 T00101015  RH  084%=      5-min Rain = 0
KTIS 100040Z 24007KT 01/M02 A3034 RMK A01 T00121015  RH  083%=      5-min Rain = 0
KTIS 100045Z 24006KT 01/M02 A3034 RMK A01 T00121017  RH  082%=      5-min Rain = 0
KTIS 100050Z 23006KT 01/M02 A3034 RMK A01 T00131018  RH  081%=      5-min Rain = 0
KTIS 100055Z 22006KT 01/M02 A3035 RMK A01 T00101018  RH  082%=      5-min Rain = 0
KTIS 100100Z 20007KT 01/M02 A3035 RMK A01 T00061021  RH  083%=      5-min Rain = 0
KTIS 100105Z 22008KT 01/M02 A3034 RMK A01 T00051021  RH  083%=      5-min Rain = 0
KTIS 100110Z 22006KT 01/M02 A3034 RMK A01 T00051022  RH  083%=      5-min Rain = 0
KTIS 100115Z 22006KT 00/M02 A3035 RMK A01 T00021024  RH  083%=      5-min Rain = 0
KTIS 100120Z 23006KT 00/M03 A3035 RMK A01 T00011025  RH  084%=      5-min Rain = 0
KTIS 100125Z 24007KT 00/M03 A3035 RMK A01 T00011026  RH  083%=      5-min Rain = 0
KTIS 100130Z 24007KT 00/M03 A3035 RMK A01 T00011026  RH  082%=      5-min Rain = 0
KTIS 100135Z 24006KT 00/03 A3035 RMK A01 T00-00-28  RH  082%=      5-min Rain = 0
KTIS 100140Z 23006KT M00/M03 A3035 RMK A01 T10031029  RH  083%=      5-min Rain = 0
KTIS 100145Z 23007KT M00/M03 A3035 RMK A01 T10021028  RH  083%=      5-min Rain = 0
KTIS 100150Z 23007KT M00/M03 A3035 RMK A01 T10011028  RH  082%=      5-min Rain = 0
KTIS 100155Z 24007KT M00/M03 A3035 RMK A01 T10021029  RH  082%=      5-min Rain = 0
KTIS 100200Z 24007KT M00/M03 A3035 RMK A01 T10021029  RH  082%=      5-min Rain = 0
KTIS 100205Z 24007KT M00/M03 A3036 RMK A01 T10031030  RH  082%=      5-min Rain = 0
KTIS 100210Z 24006KT M01/M03 A3036 RMK A01 T10061031  RH  083%=      5-min Rain = 0
KTIS 100215Z 24006KT M01/M03 A3035 RMK A01 T10071031  RH  084%=      5-min Rain = 0
KTIS 100220Z 24006KT M01/M03 A3035 RMK A01 T10071032  RH  083%=      5-min Rain = 0
KTIS 100225Z 25006KT M01/M03 A3035 RMK A01 T10101034  RH  084%=      5-min Rain = 0
KTIS 100230Z 25006KT M01/M03 A3036 RMK A01 T10111034  RH  085%=      5-min Rain = 0
KTIS 100235Z 26006KT M01/M03 A3036 RMK A01 T10111033  RH  086%=      5-min Rain = 0
KTIS 100240Z 25007KT M01/M03 A3036 RMK A01 T10081032  RH  085%=      5-min Rain = 0
KTIS 100245Z 25007KT M01/M03 A3036 RMK A01 T10061032  RH  083%=      5-min Rain = 0
KTIS 100250Z 25008KT M01/M03 A3036 RMK A01 T10061032  RH  083%=      5-min Rain = 0
KTIS 100255Z 25008KT M00/M03 A3036 RMK A01 T10041030  RH  083%=      5-min Rain = 0
KTIS 100300Z 25008KT M00/M03 A3036 RMK A01 T10041030  RH  083%=      5-min Rain = 0
KTIS 100305Z 25008KT M01/M03 A3036 RMK A01 T10051029  RH  084%=      5-min Rain = 0
KTIS 100310Z 25008KT M00/M03 A3036 RMK A01 T10031028  RH  084%=      5-min Rain = 0
KTIS 100315Z 26008KT M01/M03 A3036 RMK A01 T10051029  RH  084%=      5-min Rain = 0
KTIS 100320Z 25008KT M01/M03 A3036 RMK A01 T10051029  RH  084%=      5-min Rain = 0
KTIS 100325Z 25008KT M01/M03 A3036 RMK A01 T10051030  RH  084%=      5-min Rain = 0
KTIS 100330Z 25008KT M00/M03 A3036 RMK A01 T10041029  RH  084%=      5-min Rain = 0
KTIS 100335Z 25008KT M00/M03 A3036 RMK A01 T10041028  RH  084%=      5-min Rain = 0
KTIS 100340Z 26008KT M00/M03 A3036 RMK A01 T10041029  RH  084%=      5-min Rain = 0
KTIS 100345Z 26007KT M01/M03 A3036 RMK A01 T10061031  RH  084%=      5-min Rain = 0
KTIS 100350Z 25007KT M01/M03 A3036 RMK A01 T10071032  RH  084%=      5-min Rain = 0
KTIS 100355Z 25007KT M01/M03 A3036 RMK A01 T10081033  RH  084%=      5-min Rain = 0
KTIS 100400Z 25008KT M01/M03 A3035 RMK A01 T10081033  RH  083%=      5-min Rain = 0
KTIS 100405Z 26007KT M01/M03 A3036 RMK A01 T10071034  RH  082%=      5-min Rain = 0
KTIS 100410Z 28006KT M01/M03 A3037 RMK A01 T10051034  RH  081%=      5-min Rain = 0
KTIS 100415Z 29007KT M01/M04 A3037 RMK A01 T10111040  RH  081%=      5-min Rain = 0
KTIS 100420Z 30007KT M02/M04 A3037 RMK A01 T10161042  RH  083%=      5-min Rain = 0
KTIS 100425Z 29008KT M02/M04 A3037 RMK A01 T10221044  RH  085%=      5-min Rain = 0
KTIS 100430Z 28008KT M02/M04 A3037 RMK A01 T10231043  RH  086%=      5-min Rain = 0
KTIS 100435Z 28008KT M02/M04 A3037 RMK A01 T10221043  RH  086%=      5-min Rain = 0
KTIS 100440Z 28007KT M02/M04 A3037 RMK A01 T10221044  RH  086%=      5-min Rain = 0
KTIS 100445Z 28007KT M02/M04 A3038 RMK A01 T10221044  RH  085%=      5-min Rain = 0
KTIS 100450Z 28007KT M02/M04 A3037 RMK A01 T10201044  RH  084%=      5-min Rain = 0
KTIS 100455Z 28007KT M02/M05 A3037 RMK A01 T10191045  RH  083%=      5-min Rain = 0
KTIS 100500Z 27005KT M02/M05 A3037 RMK A01 T10191045  RH  083%=      5-min Rain = 0
KTIS 100505Z 26005KT M02/M05 A3037 RMK A01 T10201047  RH  082%=      5-min Rain = 0
KTIS 100510Z 27006KT M02/M05 A3037 RMK A01 T10201048  RH  081%=      5-min Rain = 0
KTIS 100515Z 28006KT M02/M05 A3037 RMK A01 T10191050  RH  080%=      5-min Rain = 0
KTIS 100520Z 29006KT M02/M06 A3037 RMK A01 T10231055  RH  079%=      5-min Rain = 0
KTIS 100525Z 28007KT M02/M06 A3037 RMK A01 T10241055  RH  080%=      5-min Rain = 0
KTIS 100530Z 28007KT M02/M05 A3037 RMK A01 T10221054  RH  079%=      5-min Rain = 0
KTIS 100535Z 27007KT M02/M06 A3037 RMK A01 T10191056  RH  076%=      5-min Rain = 0
KTIS 100540Z 27007KT M02/M06 A3037 RMK A01 T10181057  RH  075%=      5-min Rain = 0
KTIS 100545Z 27006KT M02/M06 A3037 RMK A01 T10181058  RH  074%=      5-min Rain = 0
KTIS 100550Z 27005KT M02/M06 A3036 RMK A01 T10181058  RH  075%=      5-min Rain = 0
KTIS 100555Z 28006KT M02/M06 A3037 RMK A01 T10221059  RH  075%=      5-min Rain = 0

Page generated in 0.0098 seconds.